sensor_id;sensor_type;location;lat;lon;timestamp;pressure;altitude;pressure_sealevel;temperature;humidity
4617;BME280;2321;42.704;23.384;2024-02-21T00:00:02;96117.69;;;5.93;nan
4617;BME280;2321;42.704;23.384;2024-02-21T00:02:30;96111.06;;;5.88;nan
4617;BME280;2321;42.704;23.384;2024-02-21T00:04:57;96116.34;;;5.88;nan
4617;BME280;2321;42.704;23.384;2024-02-21T00:07:24;96115.34;;;5.89;nan
4617;BME280;2321;42.704;23.384;2024-02-21T00:09:51;96111.88;;;5.89;nan
4617;BME280;2321;42.704;23.384;2024-02-21T00:12:19;96106.28;;;5.92;nan
4617;BME280;2321;42.704;23.384;2024-02-21T00:14:46;96107.66;;;5.96;nan
4617;BME280;2321;42.704;23.384;2024-02-21T00:17:13;96102.09;;;5.99;nan
4617;BME280;2321;42.704;23.384;2024-02-21T00:19:41;96098.63;;;5.99;nan
4617;BME280;2321;42.704;23.384;2024-02-21T00:22:08;96105.72;;;5.98;nan
4617;BME280;2321;42.704;23.384;2024-02-21T00:24:35;96098.06;;;5.95;nan
4617;BME280;2321;42.704;23.384;2024-02-21T00:27:02;96098.78;;;5.97;nan
4617;BME280;2321;42.704;23.384;2024-02-21T00:29:30;96095.72;;;5.92;nan
4617;BME280;2321;42.704;23.384;2024-02-21T00:31:57;96095.88;;;5.91;nan
4617;BME280;2321;42.704;23.384;2024-02-21T00:34:24;96103.25;;;5.87;nan
4617;BME280;2321;42.704;23.384;2024-02-21T00:36:51;96102.13;;;5.89;nan
4617;BME280;2321;42.704;23.384;2024-02-21T00:39:18;96100.03;;;5.93;nan
4617;BME280;2321;42.704;23.384;2024-02-21T00:41:45;96100.31;;;5.90;nan
4617;BME280;2321;42.704;23.384;2024-02-21T00:44:12;96097.97;;;5.87;nan
4617;BME280;2321;42.704;23.384;2024-02-21T00:46:40;96045.06;;;5.59;nan
4617;BME280;2321;42.704;23.384;2024-02-21T00:49:07;96087.94;;;5.91;nan
4617;BME280;2321;42.704;23.384;2024-02-21T00:51:34;96084.47;;;5.90;nan
4617;BME280;2321;42.704;23.384;2024-02-21T00:54:01;96079.03;;;5.92;nan
4617;BME280;2321;42.704;23.384;2024-02-21T00:56:28;96081.81;;;5.90;nan
4617;BME280;2321;42.704;23.384;2024-02-21T00:58:56;96087.78;;;5.92;nan
4617;BME280;2321;42.704;23.384;2024-02-21T01:01:24;96082.50;;;5.92;nan
4617;BME280;2321;42.704;23.384;2024-02-21T01:03:53;96076.25;;;5.93;nan
4617;BME280;2321;42.704;23.384;2024-02-21T01:06:20;96071.78;;;5.94;nan
4617;BME280;2321;42.704;23.384;2024-02-21T01:08:47;96075.28;;;5.94;nan
4617;BME280;2321;42.704;23.384;2024-02-21T01:11:15;96065.00;;;5.91;nan
4617;BME280;2321;42.704;23.384;2024-02-21T01:13:42;96064.00;;;5.92;nan
4617;BME280;2321;42.704;23.384;2024-02-21T01:16:09;96063.19;;;5.92;nan
4617;BME280;2321;42.704;23.384;2024-02-21T01:18:37;96065.66;;;5.93;nan
4617;BME280;2321;42.704;23.384;2024-02-21T01:21:06;96059.53;;;5.93;nan
4617;BME280;2321;42.704;23.384;2024-02-21T01:23:33;96058.56;;;5.94;nan
4617;BME280;2321;42.704;23.384;2024-02-21T01:26:00;96060.09;;;5.96;nan
4617;BME280;2321;42.704;23.384;2024-02-21T01:28:27;96060.25;;;5.95;nan
4617;BME280;2321;42.704;23.384;2024-02-21T01:30:54;96059.53;;;5.93;nan
4617;BME280;2321;42.704;23.384;2024-02-21T01:33:21;96052.16;;;5.96;nan
4617;BME280;2321;42.704;23.384;2024-02-21T01:35:48;96052.31;;;5.95;nan
4617;BME280;2321;42.704;23.384;2024-02-21T01:38:17;96050.78;;;5.92;nan
4617;BME280;2321;42.704;23.384;2024-02-21T01:40:44;96042.34;;;5.88;nan
4617;BME280;2321;42.704;23.384;2024-02-21T01:43:19;96047.91;;;5.85;nan
4617;BME280;2321;42.704;23.384;2024-02-21T01:45:49;96040.38;;;5.91;nan
4617;BME280;2321;42.704;23.384;2024-02-21T01:48:17;96031.91;;;5.87;nan
4617;BME280;2321;42.704;23.384;2024-02-21T01:50:44;96039.97;;;5.85;nan
4617;BME280;2321;42.704;23.384;2024-02-21T01:53:13;96035.50;;;5.86;nan
4617;BME280;2321;42.704;23.384;2024-02-21T01:55:46;96028.41;;;5.86;nan
4617;BME280;2321;42.704;23.384;2024-02-21T01:58:13;96032.19;;;5.84;nan
4617;BME280;2321;42.704;23.384;2024-02-21T02:00:42;96038.00;;;5.87;nan
4617;BME280;2321;42.704;23.384;2024-02-21T02:03:10;96039.41;;;5.92;nan
4617;BME280;2321;42.704;23.384;2024-02-21T02:05:43;96033.13;;;5.93;nan
4617;BME280;2321;42.704;23.384;2024-02-21T02:08:12;96036.31;;;5.96;nan
4617;BME280;2321;42.704;23.384;2024-02-21T02:10:40;96044.78;;;6.00;nan
4617;BME280;2321;42.704;23.384;2024-02-21T02:13:09;96045.31;;;6.04;nan
4617;BME280;2321;42.704;23.384;2024-02-21T02:15:40;96047.97;;;6.04;nan
4617;BME280;2321;42.704;23.384;2024-02-21T02:18:08;96039.03;;;6.05;nan
4617;BME280;2321;42.704;23.384;2024-02-21T02:20:35;96035.72;;;6.03;nan
4617;BME280;2321;42.704;23.384;2024-02-21T02:23:07;96032.63;;;6.07;nan
4617;BME280;2321;42.704;23.384;2024-02-21T02:25:38;96030.25;;;6.14;nan
4617;BME280;2321;42.704;23.384;2024-02-21T02:28:07;96032.59;;;6.17;nan
4617;BME280;2321;42.704;23.384;2024-02-21T02:30:35;96027.69;;;6.23;nan
4617;BME280;2321;42.704;23.384;2024-02-21T02:33:03;96025.50;;;6.18;nan
4617;BME280;2321;42.704;23.384;2024-02-21T02:35:30;96026.34;;;6.18;nan
4617;BME280;2321;42.704;23.384;2024-02-21T02:37:57;96025.50;;;6.18;nan
4617;BME280;2321;42.704;23.384;2024-02-21T02:40:24;96012.34;;;6.08;nan
4617;BME280;2321;42.704;23.384;2024-02-21T02:42:53;96020.97;;;6.10;nan
4617;BME280;2321;42.704;23.384;2024-02-21T02:45:21;96017.50;;;6.09;nan
4617;BME280;2321;42.704;23.384;2024-02-21T02:47:49;96025.41;;;6.09;nan
4617;BME280;2321;42.704;23.384;2024-02-21T02:50:16;96026.75;;;6.14;nan
4617;BME280;2321;42.704;23.384;2024-02-21T02:52:43;96023.44;;;6.12;nan
4617;BME280;2321;42.704;23.384;2024-02-21T02:55:10;96030.13;;;6.16;nan
4617;BME280;2321;42.704;23.384;2024-02-21T02:57:37;96029.41;;;6.14;nan
4617;BME280;2321;42.704;23.384;2024-02-21T03:00:07;96029.13;;;6.17;nan
4617;BME280;2321;42.704;23.384;2024-02-21T03:02:35;96033.72;;;6.15;nan
4617;BME280;2321;42.704;23.384;2024-02-21T03:05:11;96028.97;;;6.18;nan
4617;BME280;2321;42.704;23.384;2024-02-21T03:07:39;96023.69;;;6.18;nan
4617;BME280;2321;42.704;23.384;2024-02-21T03:10:06;96026.03;;;6.21;nan
4617;BME280;2321;42.704;23.384;2024-02-21T03:12:33;96033.13;;;6.21;nan
4617;BME280;2321;42.704;23.384;2024-02-21T03:15:01;96035.78;;;6.21;nan
4617;BME280;2321;42.704;23.384;2024-02-21T03:17:29;96033.44;;;6.18;nan
4617;BME280;2321;42.704;23.384;2024-02-21T03:19:57;96038.88;;;6.16;nan
4617;BME280;2321;42.704;23.384;2024-02-21T03:22:25;96035.84;;;6.11;nan
4617;BME280;2321;42.704;23.384;2024-02-21T03:24:52;96039.31;;;6.12;nan
4617;BME280;2321;42.704;23.384;2024-02-21T03:27:19;96038.78;;;6.08;nan
4617;BME280;2321;42.704;23.384;2024-02-21T03:29:47;96035.72;;;6.03;nan
4617;BME280;2321;42.704;23.384;2024-02-21T03:32:14;96042.38;;;6.07;nan
4617;BME280;2321;42.704;23.384;2024-02-21T03:34:42;96047.66;;;6.07;nan
4617;BME280;2321;42.704;23.384;2024-02-21T03:37:09;96045.72;;;6.09;nan
4617;BME280;2321;42.704;23.384;2024-02-21T03:39:37;96053.09;;;6.05;nan
4617;BME280;2321;42.704;23.384;2024-02-21T03:42:04;96051.88;;;5.99;nan
4617;BME280;2321;42.704;23.384;2024-02-21T03:44:32;96052.53;;;6.02;nan
4617;BME280;2321;42.704;23.384;2024-02-21T03:46:59;96056.19;;;6.01;nan
4617;BME280;2321;42.704;23.384;2024-02-21T03:49:26;96056.19;;;6.01;nan
4617;BME280;2321;42.704;23.384;2024-02-21T03:51:56;96058.53;;;6.04;nan
4617;BME280;2321;42.704;23.384;2024-02-21T03:54:23;96062.00;;;6.04;nan
4617;BME280;2321;42.704;23.384;2024-02-21T03:56:50;96053.25;;;6.04;nan
4617;BME280;2321;42.704;23.384;2024-02-21T03:59:17;96052.13;;;6.06;nan
4617;BME280;2321;42.704;23.384;2024-02-21T04:01:44;96054.63;;;6.08;nan
4617;BME280;2321;42.704;23.384;2024-02-21T04:04:11;96049.47;;;6.06;nan
4617;BME280;2321;42.704;23.384;2024-02-21T04:06:46;96055.72;;;6.05;nan
4617;BME280;2321;42.704;23.384;2024-02-21T04:09:15;96054.75;;;6.06;nan
4617;BME280;2321;42.704;23.384;2024-02-21T04:11:42;96057.00;;;6.01;nan
4617;BME280;2321;42.704;23.384;2024-02-21T04:14:09;96052.72;;;6.00;nan
4617;BME280;2321;42.704;23.384;2024-02-21T04:16:37;96052.41;;;6.03;nan
4617;BME280;2321;42.704;23.384;2024-02-21T04:19:04;96045.31;;;6.04;nan
4617;BME280;2321;42.704;23.384;2024-02-21T04:21:32;96048.09;;;6.02;nan
4617;BME280;2321;42.704;23.384;2024-02-21T04:23:59;96049.78;;;6.03;nan
4617;BME280;2321;42.704;23.384;2024-02-21T04:26:28;96052.81;;;6.08;nan
4617;BME280;2321;42.704;23.384;2024-02-21T04:28:55;96048.63;;;6.06;nan
4617;BME280;2321;42.704;23.384;2024-02-21T04:31:23;96052.00;;;6.08;nan
4617;BME280;2321;42.704;23.384;2024-02-21T04:33:50;96043.34;;;6.06;nan
4617;BME280;2321;42.704;23.384;2024-02-21T04:36:17;96049.22;;;6.09;nan
4617;BME280;2321;42.704;23.384;2024-02-21T04:38:45;96053.38;;;6.12;nan
4617;BME280;2321;42.704;23.384;2024-02-21T04:41:12;96056.41;;;6.17;nan
4617;BME280;2321;42.704;23.384;2024-02-21T04:43:40;96051.41;;;6.14;nan
4617;BME280;2321;42.704;23.384;2024-02-21T04:46:08;96051.41;;;6.14;nan
4617;BME280;2321;42.704;23.384;2024-02-21T04:48:35;96052.91;;;6.17;nan
4617;BME280;2321;42.704;23.384;2024-02-21T04:51:02;96061.38;;;6.20;nan
4617;BME280;2321;42.704;23.384;2024-02-21T04:53:29;96054.28;;;6.21;nan
4617;BME280;2321;42.704;23.384;2024-02-21T04:55:56;96057.84;;;6.30;nan
4617;BME280;2321;42.704;23.384;2024-02-21T04:58:24;96055.75;;;6.34;nan
4617;BME280;2321;42.704;23.384;2024-02-21T05:00:52;96061.03;;;6.34;nan
4617;BME280;2321;42.704;23.384;2024-02-21T05:03:20;96061.03;;;6.34;nan
4617;BME280;2321;42.704;23.384;2024-02-21T05:05:48;96058.31;;;6.25;nan
4617;BME280;2321;42.704;23.384;2024-02-21T05:08:16;96046.84;;;6.06;nan
4617;BME280;2321;42.704;23.384;2024-02-21T05:10:43;96060.63;;;6.10;nan
4617;BME280;2321;42.704;23.384;2024-02-21T05:13:10;96062.28;;;6.01;nan
4617;BME280;2321;42.704;23.384;2024-02-21T05:15:37;96061.50;;;5.91;nan
4617;BME280;2321;42.704;23.384;2024-02-21T05:18:05;96075.03;;;5.87;nan
4617;BME280;2321;42.704;23.384;2024-02-21T05:20:33;96071.53;;;5.87;nan
4617;BME280;2321;42.704;23.384;2024-02-21T05:23:00;96077.41;;;5.81;nan
4617;BME280;2321;42.704;23.384;2024-02-21T05:25:27;96069.63;;;5.79;nan
4617;BME280;2321;42.704;23.384;2024-02-21T05:27:54;96072.28;;;5.79;nan
4617;BME280;2321;42.704;23.384;2024-02-21T05:30:21;96071.72;;;5.75;nan
4617;BME280;2321;42.704;23.384;2024-02-21T05:32:48;96075.88;;;5.78;nan
4617;BME280;2321;42.704;23.384;2024-02-21T05:35:17;96070.88;;;5.75;nan
4617;BME280;2321;42.704;23.384;2024-02-21T05:37:44;96080.78;;;5.73;nan
4617;BME280;2321;42.704;23.384;2024-02-21T05:40:12;96071.84;;;5.74;nan
4617;BME280;2321;42.704;23.384;2024-02-21T05:42:40;96077.84;;;5.76;nan
4617;BME280;2321;42.704;23.384;2024-02-21T05:45:07;96073.91;;;5.80;nan
4617;BME280;2321;42.704;23.384;2024-02-21T05:47:34;96070.22;;;5.73;nan
4617;BME280;2321;42.704;23.384;2024-02-21T05:50:01;96085.34;;;5.71;nan
4617;BME280;2321;42.704;23.384;2024-02-21T05:52:30;96071.75;;;5.65;nan
4617;BME280;2321;42.704;23.384;2024-02-21T05:54:57;96075.81;;;5.60;nan
4617;BME280;2321;42.704;23.384;2024-02-21T05:57:24;96089.47;;;5.55;nan
4617;BME280;2321;42.704;23.384;2024-02-21T05:59:51;96089.59;;;5.53;nan
4617;BME280;2321;42.704;23.384;2024-02-21T06:02:18;96093.63;;;5.58;nan
4617;BME280;2321;42.704;23.384;2024-02-21T06:04:45;96089.16;;;5.58;nan
4617;BME280;2321;42.704;23.384;2024-02-21T06:07:13;96091.09;;;5.56;nan
4617;BME280;2321;42.704;23.384;2024-02-21T06:09:41;96098.34;;;5.54;nan
4617;BME280;2321;42.704;23.384;2024-02-21T06:12:08;96104.22;;;5.48;nan
4617;BME280;2321;42.704;23.384;2024-02-21T06:14:35;96102.81;;;5.43;nan
4617;BME280;2321;42.704;23.384;2024-02-21T06:17:03;96105.31;;;5.45;nan
4617;BME280;2321;42.704;23.384;2024-02-21T06:19:30;96114.78;;;5.48;nan
4617;BME280;2321;42.704;23.384;2024-02-21T06:21:57;96105.44;;;5.53;nan
4617;BME280;2321;42.704;23.384;2024-02-21T06:24:24;96108.91;;;5.54;nan
4617;BME280;2321;42.704;23.384;2024-02-21T06:26:52;96109.31;;;5.59;nan
4617;BME280;2321;42.704;23.384;2024-02-21T06:29:19;96112.06;;;5.67;nan
4617;BME280;2321;42.704;23.384;2024-02-21T06:31:47;96115.97;;;5.73;nan
4617;BME280;2321;42.704;23.384;2024-02-21T06:34:14;96121.19;;;5.83;nan
4617;BME280;2321;42.704;23.384;2024-02-21T06:36:41;96100.94;;;5.74;nan
4617;BME280;2321;42.704;23.384;2024-02-21T06:39:08;96129.28;;;5.92;nan
4617;BME280;2321;42.704;23.384;2024-02-21T06:41:36;96126.84;;;5.98;nan
4617;BME280;2321;42.704;23.384;2024-02-21T06:44:05;96134.38;;;6.03;nan
4617;BME280;2321;42.704;23.384;2024-02-21T06:46:33;96138.53;;;6.06;nan
4617;BME280;2321;42.704;23.384;2024-02-21T06:49:00;96127.13;;;6.15;nan
4617;BME280;2321;42.704;23.384;2024-02-21T06:51:28;96142.66;;;6.28;nan
4617;BME280;2321;42.704;23.384;2024-02-21T06:53:55;96150.69;;;6.37;nan
4617;BME280;2321;42.704;23.384;2024-02-21T06:56:23;96141.16;;;6.44;nan
4617;BME280;2321;42.704;23.384;2024-02-21T06:58:52;96131.94;;;6.48;nan
4617;BME280;2321;42.704;23.384;2024-02-21T07:01:22;96140.81;;;6.57;nan
4617;BME280;2321;42.704;23.384;2024-02-21T07:03:49;96134.38;;;6.60;nan
4617;BME280;2321;42.704;23.384;2024-02-21T07:06:16;96138.25;;;6.65;nan
4617;BME280;2321;42.704;23.384;2024-02-21T07:08:43;96136.31;;;6.68;nan
4617;BME280;2321;42.704;23.384;2024-02-21T07:11:11;96145.47;;;6.73;nan
4617;BME280;2321;42.704;23.384;2024-02-21T07:13:38;96139.88;;;6.77;nan
4617;BME280;2321;42.704;23.384;2024-02-21T07:16:06;96157.41;;;6.78;nan
4617;BME280;2321;42.704;23.384;2024-02-21T07:18:34;96141.53;;;6.78;nan
4617;BME280;2321;42.704;23.384;2024-02-21T07:21:02;96144.31;;;6.76;nan
4617;BME280;2321;42.704;23.384;2024-02-21T07:23:29;96139.56;;;6.80;nan
4617;BME280;2321;42.704;23.384;2024-02-21T07:25:56;96147.59;;;6.88;nan
4617;BME280;2321;42.704;23.384;2024-02-21T07:28:23;96144.34;;;6.94;nan
4617;BME280;2321;42.704;23.384;2024-02-21T07:30:50;96150.16;;;6.98;nan
4617;BME280;2321;42.704;23.384;2024-02-21T07:33:17;96154.31;;;7.01;nan
4617;BME280;2321;42.704;23.384;2024-02-21T07:35:46;96145.25;;;7.03;nan
4617;BME280;2321;42.704;23.384;2024-02-21T07:38:13;96143.81;;;7.09;nan
4617;BME280;2321;42.704;23.384;2024-02-21T07:40:40;96148.19;;;7.18;nan
4617;BME280;2321;42.704;23.384;2024-02-21T07:43:07;96148.72;;;7.22;nan
4617;BME280;2321;42.704;23.384;2024-02-21T07:45:34;96144.63;;;7.28;nan
4617;BME280;2321;42.704;23.384;2024-02-21T07:48:01;96145.53;;;7.37;nan
4617;BME280;2321;42.704;23.384;2024-02-21T07:50:28;96146.06;;;7.40;nan
4617;BME280;2321;42.704;23.384;2024-02-21T07:52:57;96145.94;;;7.42;nan
4617;BME280;2321;42.704;23.384;2024-02-21T07:55:24;96131.13;;;7.39;nan
4617;BME280;2321;42.704;23.384;2024-02-21T07:57:51;96137.81;;;7.44;nan
4617;BME280;2321;42.704;23.384;2024-02-21T08:00:19;96140.38;;;7.54;nan
4617;BME280;2321;42.704;23.384;2024-02-21T08:02:48;96127.66;;;7.57;nan
4617;BME280;2321;42.704;23.384;2024-02-21T08:05:15;96138.25;;;7.57;nan
4617;BME280;2321;42.704;23.384;2024-02-21T08:07:42;96129.91;;;7.52;nan
4617;BME280;2321;42.704;23.384;2024-02-21T08:10:11;96134.91;;;7.55;nan
4617;BME280;2321;42.704;23.384;2024-02-21T08:12:38;96145.38;;;7.57;nan
4617;BME280;2321;42.704;23.384;2024-02-21T08:15:06;96144.34;;;7.58;nan
4617;BME280;2321;42.704;23.384;2024-02-21T08:17:36;96139.28;;;7.65;nan
4617;BME280;2321;42.704;23.384;2024-02-21T08:20:04;96140.84;;;7.76;nan
4617;BME280;2321;42.704;23.384;2024-02-21T08:22:31;96136.53;;;7.74;nan
4617;BME280;2321;42.704;23.384;2024-02-21T08:24:58;96134.72;;;7.75;nan
4617;BME280;2321;42.704;23.384;2024-02-21T08:27:27;96139.44;;;7.90;nan
4617;BME280;2321;42.704;23.384;2024-02-21T08:29:54;96130.44;;;8.09;nan
4617;BME280;2321;42.704;23.384;2024-02-21T08:32:21;96132.25;;;8.09;nan
4617;BME280;2321;42.704;23.384;2024-02-21T08:34:48;96131.97;;;8.20;nan
4617;BME280;2321;42.704;23.384;2024-02-21T08:37:15;96134.81;;;8.27;nan
4617;BME280;2321;42.704;23.384;2024-02-21T08:39:42;96138.34;;;8.36;nan
4617;BME280;2321;42.704;23.384;2024-02-21T08:42:09;96130.72;;;8.41;nan
4617;BME280;2321;42.704;23.384;2024-02-21T08:44:39;96140.72;;;8.56;nan
4617;BME280;2321;42.704;23.384;2024-02-21T08:47:06;96132.44;;;8.59;nan
4617;BME280;2321;42.704;23.384;2024-02-21T08:49:35;96129.22;;;8.74;nan
4617;BME280;2321;42.704;23.384;2024-02-21T08:52:03;96135.19;;;8.84;nan
4617;BME280;2321;42.704;23.384;2024-02-21T08:54:30;96133.03;;;8.88;nan
4617;BME280;2321;42.704;23.384;2024-02-21T08:56:58;96135.72;;;8.96;nan
4617;BME280;2321;42.704;23.384;2024-02-21T08:59:25;96136.88;;;8.93;nan
4617;BME280;2321;42.704;23.384;2024-02-21T09:01:54;96136.72;;;8.95;nan
4617;BME280;2321;42.704;23.384;2024-02-21T09:04:21;96137.69;;;8.86;nan
4617;BME280;2321;42.704;23.384;2024-02-21T09:06:48;96132.84;;;8.81;nan
4617;BME280;2321;42.704;23.384;2024-02-21T09:09:15;96136.19;;;8.83;nan
4617;BME280;2321;42.704;23.384;2024-02-21T09:11:43;96137.84;;;8.84;nan
4617;BME280;2321;42.704;23.384;2024-02-21T09:14:10;96144.50;;;8.88;nan
4617;BME280;2321;42.704;23.384;2024-02-21T09:16:37;96138.34;;;8.88;nan
4617;BME280;2321;42.704;23.384;2024-02-21T09:19:06;96148.78;;;8.81;nan
4617;BME280;2321;42.704;23.384;2024-02-21T09:21:36;96137.84;;;8.76;nan
4617;BME280;2321;42.704;23.384;2024-02-21T09:24:03;96131.69;;;8.75;nan
4617;BME280;2321;42.704;23.384;2024-02-21T09:26:31;96128.53;;;8.71;nan
4617;BME280;2321;42.704;23.384;2024-02-21T09:28:58;96127.69;;;8.71;nan
4617;BME280;2321;42.704;23.384;2024-02-21T09:31:25;96134.31;;;8.67;nan
4617;BME280;2321;42.704;23.384;2024-02-21T09:33:52;96112.06;;;8.59;nan
4617;BME280;2321;42.704;23.384;2024-02-21T09:36:20;96130.53;;;8.78;nan
4617;BME280;2321;42.704;23.384;2024-02-21T09:38:48;96130.53;;;8.78;nan
4617;BME280;2321;42.704;23.384;2024-02-21T09:41:16;96128.25;;;8.83;nan
4617;BME280;2321;42.704;23.384;2024-02-21T09:43:44;96138.03;;;8.82;nan
4617;BME280;2321;42.704;23.384;2024-02-21T09:46:16;96130.53;;;8.78;nan
4617;BME280;2321;42.704;23.384;2024-02-21T09:49:09;96139.00;;;8.73;nan
4617;BME280;2321;42.704;23.384;2024-02-21T09:51:44;96135.31;;;8.74;nan
4617;BME280;2321;42.704;23.384;2024-02-21T09:54:14;96134.66;;;8.72;nan
4617;BME280;2321;42.704;23.384;2024-02-21T09:56:41;96129.03;;;8.75;nan
4617;BME280;2321;42.704;23.384;2024-02-21T09:59:09;96125.72;;;8.81;nan
4617;BME280;2321;42.704;23.384;2024-02-21T10:01:37;96131.03;;;8.81;nan
4617;BME280;2321;42.704;23.384;2024-02-21T10:04:04;96128.56;;;8.88;nan
4617;BME280;2321;42.704;23.384;2024-02-21T10:06:32;96128.56;;;8.88;nan
4617;BME280;2321;42.704;23.384;2024-02-21T10:09:00;96126.56;;;8.99;nan
4617;BME280;2321;42.704;23.384;2024-02-21T10:11:28;96115.16;;;9.07;nan
4617;BME280;2321;42.704;23.384;2024-02-21T10:14:03;96119.63;;;9.14;nan
4617;BME280;2321;42.704;23.384;2024-02-21T10:16:30;96116.31;;;9.21;nan
4617;BME280;2321;42.704;23.384;2024-02-21T10:18:58;96110.31;;;9.27;nan
4617;BME280;2321;42.704;23.384;2024-02-21T10:21:26;96110.16;;;9.37;nan
4617;BME280;2321;42.704;23.384;2024-02-21T10:23:53;96110.81;;;9.39;nan
4617;BME280;2321;42.704;23.384;2024-02-21T10:26:21;96102.50;;;9.42;nan
4617;BME280;2321;42.704;23.384;2024-02-21T10:28:48;96095.88;;;9.46;nan
4617;BME280;2321;42.704;23.384;2024-02-21T10:31:23;96099.34;;;9.55;nan
4617;BME280;2321;42.704;23.384;2024-02-21T10:33:55;96086.72;;;9.57;nan
4617;BME280;2321;42.704;23.384;2024-02-21T10:36:25;96086.72;;;9.66;nan
4617;BME280;2321;42.704;23.384;2024-02-21T10:38:52;96082.72;;;9.70;nan
4617;BME280;2321;42.704;23.384;2024-02-21T10:41:21;96073.56;;;9.81;nan
4617;BME280;2321;42.704;23.384;2024-02-21T10:43:50;96077.97;;;9.97;nan
4617;BME280;2321;42.704;23.384;2024-02-21T10:46:19;96066.50;;;10.05;nan
4617;BME280;2321;42.704;23.384;2024-02-21T10:48:47;96053.31;;;10.12;nan
4617;BME280;2321;42.704;23.384;2024-02-21T10:51:16;96050.03;;;10.33;nan
4617;BME280;2321;42.704;23.384;2024-02-21T10:53:45;96045.19;;;10.45;nan
4617;BME280;2321;42.704;23.384;2024-02-21T10:56:25;96035.34;;;10.46;nan
4617;BME280;2321;42.704;23.384;2024-02-21T10:58:53;96033.47;;;10.63;nan
4617;BME280;2321;42.704;23.384;2024-02-21T11:01:21;96022.50;;;10.82;nan
4617;BME280;2321;42.704;23.384;2024-02-21T11:03:51;96030.72;;;10.95;nan
4617;BME280;2321;42.704;23.384;2024-02-21T11:06:20;96025.34;;;11.04;nan
4617;BME280;2321;42.704;23.384;2024-02-21T11:08:59;96024.78;;;11.08;nan
4617;BME280;2321;42.704;23.384;2024-02-21T11:11:28;96017.03;;;11.22;nan
4617;BME280;2321;42.704;23.384;2024-02-21T11:14:04;96010.31;;;11.41;nan
4617;BME280;2321;42.704;23.384;2024-02-21T11:16:36;95996.91;;;11.50;nan
4617;BME280;2321;42.704;23.384;2024-02-21T11:19:06;96009.06;;;11.83;nan
4617;BME280;2321;42.704;23.384;2024-02-21T11:21:33;96017.31;;;12.03;nan
4617;BME280;2321;42.704;23.384;2024-02-21T11:24:01;96008.47;;;12.03;nan
4617;BME280;2321;42.704;23.384;2024-02-21T11:26:30;96012.06;;;12.10;nan
4617;BME280;2321;42.704;23.384;2024-02-21T11:28:58;96006.09;;;12.23;nan
4617;BME280;2321;42.704;23.384;2024-02-21T11:31:26;96011.16;;;12.18;nan
4617;BME280;2321;42.704;23.384;2024-02-21T11:33:54;96000.28;;;12.04;nan
4617;BME280;2321;42.704;23.384;2024-02-21T11:36:26;95999.34;;;12.12;nan
4617;BME280;2321;42.704;23.384;2024-02-21T11:38:53;95996.03;;;12.10;nan
4617;BME280;2321;42.704;23.384;2024-02-21T11:41:21;95999.19;;;11.98;nan
4617;BME280;2321;42.704;23.384;2024-02-21T11:43:50;95988.69;;;11.97;nan
4617;BME280;2321;42.704;23.384;2024-02-21T11:46:17;95983.22;;;11.83;nan
4617;BME280;2321;42.704;23.384;2024-02-21T11:48:45;95987.53;;;11.69;nan
4617;BME280;2321;42.704;23.384;2024-02-21T11:51:21;95972.47;;;11.61;nan
4617;BME280;2321;42.704;23.384;2024-02-21T11:53:51;95983.28;;;11.60;nan
4617;BME280;2321;42.704;23.384;2024-02-21T11:56:18;95979.72;;;11.52;nan
4617;BME280;2321;42.704;23.384;2024-02-21T11:58:46;95974.66;;;11.42;nan
4617;BME280;2321;42.704;23.384;2024-02-21T12:01:14;95981.91;;;11.33;nan
4617;BME280;2321;42.704;23.384;2024-02-21T12:03:42;95970.88;;;11.21;nan
4617;BME280;2321;42.704;23.384;2024-02-21T12:06:16;95982.16;;;11.08;nan
4617;BME280;2321;42.704;23.384;2024-02-21T12:08:46;95984.34;;;11.05;nan
4617;BME280;2321;42.704;23.384;2024-02-21T12:11:19;95971.22;;;11.03;nan
4617;BME280;2321;42.704;23.384;2024-02-21T12:13:47;95977.25;;;10.97;nan
4617;BME280;2321;42.704;23.384;2024-02-21T12:16:19;95977.44;;;10.95;nan
4617;BME280;2321;42.704;23.384;2024-02-21T12:18:46;95969.63;;;10.94;nan
4617;BME280;2321;42.704;23.384;2024-02-21T12:21:13;95975.47;;;10.89;nan
4617;BME280;2321;42.704;23.384;2024-02-21T12:23:40;95966.00;;;10.86;nan
4617;BME280;2321;42.704;23.384;2024-02-21T12:26:07;95959.41;;;10.82;nan
4617;BME280;2321;42.704;23.384;2024-02-21T12:28:34;95961.97;;;10.75;nan
4617;BME280;2321;42.704;23.384;2024-02-21T12:31:02;95960.00;;;10.69;nan
4617;BME280;2321;42.704;23.384;2024-02-21T12:33:31;95963.31;;;10.71;nan
4617;BME280;2321;42.704;23.384;2024-02-21T12:35:58;95948.53;;;10.68;nan
4617;BME280;2321;42.704;23.384;2024-02-21T12:38:25;95957.69;;;10.66;nan
4617;BME280;2321;42.704;23.384;2024-02-21T12:40:53;95950.06;;;10.63;nan
4617;BME280;2321;42.704;23.384;2024-02-21T12:43:20;95942.78;;;10.56;nan
4617;BME280;2321;42.704;23.384;2024-02-21T12:45:48;95948.59;;;10.60;nan
4617;BME280;2321;42.704;23.384;2024-02-21T12:48:15;95948.41;;;10.62;nan
4617;BME280;2321;42.704;23.384;2024-02-21T12:50:48;95946.22;;;10.65;nan
4617;BME280;2321;42.704;23.384;2024-02-21T12:53:16;95952.44;;;10.57;nan
4617;BME280;2321;42.704;23.384;2024-02-21T12:55:45;95948.75;;;10.35;nan
4617;BME280;2321;42.704;23.384;2024-02-21T12:58:12;95949.81;;;10.26;nan
4617;BME280;2321;42.704;23.384;2024-02-21T13:00:40;95951.47;;;10.27;nan
4617;BME280;2321;42.704;23.384;2024-02-21T13:03:07;95949.50;;;10.20;nan
4617;BME280;2321;42.704;23.384;2024-02-21T13:05:35;95941.53;;;10.20;nan
4617;BME280;2321;42.704;23.384;2024-02-21T13:08:04;95942.47;;;10.28;nan
4617;BME280;2321;42.704;23.384;2024-02-21T13:10:31;95940.28;;;10.31;nan
4617;BME280;2321;42.704;23.384;2024-02-21T13:12:59;95932.47;;;10.30;nan
4617;BME280;2321;42.704;23.384;2024-02-21T13:15:27;95928.50;;;10.26;nan
4617;BME280;2321;42.704;23.384;2024-02-21T13:17:55;95933.47;;;10.29;nan
4617;BME280;2321;42.704;23.384;2024-02-21T13:20:22;95923.31;;;10.32;nan
4617;BME280;2321;42.704;23.384;2024-02-21T13:22:49;95922.75;;;10.37;nan
4617;BME280;2321;42.704;23.384;2024-02-21T13:25:18;95924.56;;;10.45;nan
4617;BME280;2321;42.704;23.384;2024-02-21T13:27:46;95927.03;;;10.46;nan
4617;BME280;2321;42.704;23.384;2024-02-21T13:30:14;95924.91;;;10.42;nan
4617;BME280;2321;42.704;23.384;2024-02-21T13:32:43;95923.09;;;10.42;nan
4617;BME280;2321;42.704;23.384;2024-02-21T13:35:12;95914.91;;;10.44;nan
4617;BME280;2321;42.704;23.384;2024-02-21T13:37:40;95925.56;;;10.44;nan
4617;BME280;2321;42.704;23.384;2024-02-21T13:40:08;95916.09;;;10.41;nan
4617;BME280;2321;42.704;23.384;2024-02-21T13:42:37;95909.47;;;10.37;nan
4617;BME280;2321;42.704;23.384;2024-02-21T13:45:05;95918.41;;;10.44;nan